Hopkins, Michigan
Current Conditions -  °F | °C
As of 1:53 AM on Friday 31 Oct 2014 (Local Time) from KBIV Reporting Station
Overcast Overcast  
Wind Chill: 50°   Ceiling: 4800
Heat Index: 50°   Visibility: 10mi
Dew Point: 39°   Wind: 9mph
Humidity: 66%   Direction: 270°W
Pressure: 29.97"   Gusts: NA
Location:  42.62°N, 85.76°W
Report Text: KBIV 310553Z AUTO 27008KT 10SM FEW032 OVC048 10/04 A2997 RMK AO2 SLP130 T01000039 10100 20089 58015
Loading
Personal Weather Stations






























Interactive Weather Map
Tropical Storm Tracking
New forecast layout! Learn more

10-Day Weather Forecast

Advertisements
Track Severe Weather on mobile